createdAt,value
2023-06-30T00:00:24.567Z,56.55
2023-06-30T00:01:24.383Z,56.65
2023-06-30T00:02:24.440Z,56.65
2023-06-30T00:03:24.476Z,56.55
2023-06-30T00:04:24.410Z,56.65
2023-06-30T00:05:24.754Z,56.65
2023-06-30T00:06:24.328Z,56.65
2023-06-30T00:07:24.318Z,56.65
2023-06-30T00:08:24.285Z,56.65
2023-06-30T00:09:24.274Z,56.65
2023-06-30T00:10:24.258Z,56.65
2023-06-30T00:11:24.270Z,56.65
2023-06-30T00:12:24.228Z,56.65
2023-06-30T00:13:24.211Z,56.65
2023-06-30T00:14:24.204Z,56.65
2023-06-30T00:15:24.201Z,56.65
2023-06-30T00:16:24.210Z,56.65
2023-06-30T00:17:24.174Z,56.74
2023-06-30T00:18:24.164Z,56.74
2023-06-30T00:19:24.126Z,56.74
2023-06-30T00:20:24.151Z,56.74
2023-06-30T00:21:24.108Z,56.74
2023-06-30T00:22:24.186Z,56.74
2023-06-30T00:23:24.078Z,56.74
2023-06-30T00:24:24.066Z,56.74
2023-06-30T00:25:24.051Z,56.74
2023-06-30T00:26:24.056Z,56.74
2023-06-30T00:27:24.026Z,56.74
2023-06-30T00:28:24.043Z,56.74
2023-06-30T00:29:23.982Z,56.85
2023-06-30T00:30:23.993Z,56.74
2023-06-30T00:31:24.001Z,56.85
2023-06-30T00:32:23.998Z,56.74
2023-06-30T00:33:23.933Z,56.74
2023-06-30T00:34:23.973Z,56.74
2023-06-30T00:35:23.915Z,56.85
2023-06-30T00:36:23.905Z,56.85
2023-06-30T00:37:23.911Z,56.85
2023-06-30T00:38:23.904Z,56.85
2023-06-30T00:39:23.869Z,56.85
2023-06-30T00:40:23.857Z,56.74
2023-06-30T00:41:23.837Z,56.85
2023-06-30T00:42:23.835Z,56.85
2023-06-30T00:43:23.809Z,56.85
2023-06-30T00:44:23.789Z,56.85
2023-06-30T00:45:23.788Z,56.85
2023-06-30T00:46:23.817Z,56.85
2023-06-30T00:47:23.779Z,56.85
2023-06-30T00:48:23.754Z,56.85
2023-06-30T00:49:23.730Z,56.85
2023-06-30T00:50:23.857Z,56.85
2023-06-30T00:51:23.686Z,56.95
2023-06-30T00:52:23.704Z,56.85
2023-06-30T00:53:23.669Z,56.95
2023-06-30T00:54:23.681Z,56.95
2023-06-30T00:55:23.636Z,56.85
2023-06-30T00:56:23.664Z,56.95
2023-06-30T00:57:23.604Z,56.95
2023-06-30T00:58:23.606Z,56.95
2023-06-30T00:59:23.578Z,56.95
2023-06-30T01:00:23.579Z,56.95
2023-06-30T01:01:23.633Z,56.95
2023-06-30T01:02:23.610Z,57.07
2023-06-30T01:03:23.679Z,56.98
2023-06-30T01:04:23.590Z,56.98
2023-06-30T01:05:23.500Z,56.98
2023-06-30T01:06:23.518Z,57.07
2023-06-30T01:07:23.606Z,57.07
2023-06-30T01:08:23.478Z,57.07
2023-06-30T01:09:23.459Z,57.07
2023-06-30T01:10:23.462Z,57.07
2023-06-30T01:11:23.419Z,57.07
2023-06-30T01:12:23.440Z,57.07
2023-06-30T01:13:23.413Z,57.07
2023-06-30T01:14:23.408Z,57.07
2023-06-30T01:15:23.450Z,57.07
2023-06-30T01:16:23.359Z,57.07
2023-06-30T01:17:23.373Z,57.07
2023-06-30T01:18:23.352Z,57.07
2023-06-30T01:19:23.319Z,57.07
2023-06-30T01:20:23.309Z,57.07
2023-06-30T01:21:23.291Z,57.10
2023-06-30T01:22:23.295Z,57.20
2023-06-30T01:23:23.265Z,57.10
2023-06-30T01:24:23.278Z,57.10
2023-06-30T01:25:23.273Z,57.10
2023-06-30T01:26:23.283Z,57.20
2023-06-30T01:27:23.235Z,57.20
2023-06-30T01:28:23.239Z,57.20
2023-06-30T01:29:23.209Z,57.20
2023-06-30T01:30:23.181Z,57.20
2023-06-30T01:31:23.250Z,57.20
2023-06-30T01:32:23.220Z,57.20
2023-06-30T01:33:23.139Z,57.20
2023-06-30T01:34:23.134Z,57.20
2023-06-30T01:35:23.117Z,57.20
2023-06-30T01:36:23.108Z,57.30
2023-06-30T01:37:23.102Z,57.20
2023-06-30T01:38:23.083Z,57.23
2023-06-30T01:39:23.091Z,57.33
2023-06-30T01:40:23.038Z,57.33
2023-06-30T01:41:23.060Z,57.33
2023-06-30T01:42:23.007Z,57.33
2023-06-30T01:43:22.997Z,57.33
2023-06-30T01:44:22.990Z,57.33
2023-06-30T01:45:23.055Z,57.33
2023-06-30T01:46:23.073Z,57.33
2023-06-30T01:47:22.961Z,57.33
2023-06-30T01:48:22.942Z,57.33
2023-06-30T01:49:22.911Z,57.33
2023-06-30T01:50:22.927Z,57.33
2023-06-30T01:51:22.909Z,57.33
2023-06-30T01:52:22.892Z,57.33
2023-06-30T01:53:22.863Z,57.33
2023-06-30T01:54:22.858Z,57.33
2023-06-30T01:55:22.869Z,57.43
2023-06-30T01:56:22.839Z,57.33
2023-06-30T01:57:22.842Z,57.33
2023-06-30T01:58:22.798Z,57.33
2023-06-30T01:59:22.776Z,57.33
2023-06-30T02:00:22.797Z,57.35
2023-06-30T02:01:22.766Z,57.35
2023-06-30T02:02:22.818Z,57.33
2023-06-30T02:03:22.804Z,57.35
2023-06-30T02:04:22.734Z,57.46
2023-06-30T02:05:22.701Z,57.35
2023-06-30T02:06:22.696Z,57.46
2023-06-30T02:07:22.681Z,57.46
2023-06-30T02:08:22.708Z,57.35
2023-06-30T02:09:30.915Z,57.46
2023-06-30T02:10:22.688Z,57.46
2023-06-30T02:11:22.637Z,57.46
2023-06-30T02:12:22.621Z,57.46
2023-06-30T02:13:22.679Z,57.46
2023-06-30T02:14:22.612Z,57.46
2023-06-30T02:15:22.565Z,57.46
2023-06-30T02:16:22.614Z,57.46
2023-06-30T02:17:22.587Z,57.48
2023-06-30T02:18:22.522Z,57.48
2023-06-30T02:19:22.532Z,57.48
2023-06-30T02:20:22.539Z,57.59
2023-06-30T02:21:22.476Z,57.59
2023-06-30T02:22:22.468Z,57.59
2023-06-30T02:23:22.452Z,57.59
2023-06-30T02:24:22.447Z,57.59
2023-06-30T02:25:22.448Z,57.59
2023-06-30T02:26:22.420Z,57.59
2023-06-30T02:27:22.404Z,57.68
2023-06-30T02:28:22.387Z,57.59
2023-06-30T02:29:22.376Z,57.59
2023-06-30T02:30:22.372Z,57.59
2023-06-30T02:31:22.407Z,57.59
2023-06-30T02:32:22.368Z,57.59
2023-06-30T02:33:23.193Z,57.61
2023-06-30T02:34:22.322Z,57.61
2023-06-30T02:35:22.329Z,57.61
2023-06-30T02:36:22.297Z,57.61
2023-06-30T02:37:22.288Z,57.61
2023-06-30T02:38:22.268Z,57.61
2023-06-30T02:39:22.315Z,57.71
2023-06-30T02:40:22.239Z,57.71
2023-06-30T02:41:22.203Z,57.71
2023-06-30T02:42:22.230Z,57.71
2023-06-30T02:43:22.187Z,57.71
2023-06-30T02:44:22.172Z,57.71
2023-06-30T02:45:22.157Z,57.71
2023-06-30T02:46:22.223Z,57.71
2023-06-30T02:47:22.499Z,57.71
2023-06-30T02:48:22.148Z,57.71
2023-06-30T02:49:22.112Z,57.71
2023-06-30T02:50:22.129Z,57.71
2023-06-30T02:51:22.067Z,57.71
2023-06-30T02:52:22.083Z,57.71
2023-06-30T02:53:22.051Z,57.71
2023-06-30T02:54:22.029Z,57.71
2023-06-30T02:55:22.017Z,57.71
2023-06-30T02:56:22.041Z,57.71
2023-06-30T02:57:22.002Z,57.71
2023-06-30T02:58:22.070Z,57.61
2023-06-30T02:59:21.966Z,57.71
2023-06-30T03:00:21.977Z,57.61
2023-06-30T03:01:22.019Z,57.71
2023-06-30T03:02:22.427Z,57.61
2023-06-30T03:03:22.030Z,57.71
2023-06-30T03:04:21.908Z,57.61
2023-06-30T03:05:21.881Z,57.71
2023-06-30T03:06:21.966Z,57.61
2023-06-30T03:07:21.898Z,57.61
2023-06-30T03:08:21.843Z,57.61
2023-06-30T03:09:21.999Z,57.61
2023-06-30T03:10:21.810Z,57.61
2023-06-30T03:11:21.803Z,57.61
2023-06-30T03:12:21.783Z,57.61
2023-06-30T03:13:21.780Z,57.61
2023-06-30T03:14:21.780Z,57.61
2023-06-30T03:15:21.748Z,57.61
2023-06-30T03:16:21.779Z,57.61
2023-06-30T03:17:21.775Z,57.61
2023-06-30T03:18:21.712Z,57.61
2023-06-30T03:19:21.713Z,57.51
2023-06-30T03:20:21.681Z,57.51
2023-06-30T03:21:21.679Z,57.51
2023-06-30T03:22:21.655Z,57.61
2023-06-30T03:23:21.692Z,57.51
2023-06-30T03:24:21.642Z,57.51
2023-06-30T03:25:21.649Z,57.51
2023-06-30T03:26:21.589Z,57.51
2023-06-30T03:27:21.586Z,57.61
2023-06-30T03:28:21.576Z,57.51
2023-06-30T03:29:21.557Z,57.51
2023-06-30T03:30:21.521Z,57.51
2023-06-30T03:31:21.595Z,57.51
2023-06-30T03:32:21.553Z,57.51
2023-06-30T03:33:21.492Z,57.51
2023-06-30T03:34:21.491Z,57.41
2023-06-30T03:35:21.468Z,57.41
2023-06-30T03:36:21.895Z,57.51
2023-06-30T03:37:21.446Z,57.41
2023-06-30T03:38:21.416Z,57.39
2023-06-30T03:39:21.452Z,57.51
2023-06-30T03:40:21.418Z,57.39
2023-06-30T03:41:21.412Z,57.39
2023-06-30T03:42:21.368Z,57.39
2023-06-30T03:43:21.366Z,57.39
2023-06-30T03:44:21.341Z,57.39
2023-06-30T03:45:21.346Z,57.39
2023-06-30T03:46:21.340Z,57.39
2023-06-30T03:47:21.369Z,57.28
2023-06-30T03:48:21.331Z,57.39
2023-06-30T03:49:21.271Z,57.28
2023-06-30T03:50:21.247Z,57.28
2023-06-30T03:51:21.251Z,57.15
2023-06-30T03:52:21.238Z,57.15
2023-06-30T03:53:21.239Z,57.15
2023-06-30T03:54:21.202Z,57.15
2023-06-30T03:55:21.196Z,57.15
2023-06-30T03:56:21.181Z,57.15
2023-06-30T03:57:21.176Z,57.15
2023-06-30T03:58:21.177Z,57.15
2023-06-30T03:59:21.150Z,57.06
2023-06-30T04:00:21.123Z,57.15
2023-06-30T04:01:21.120Z,57.03
2023-06-30T04:02:21.148Z,57.03
2023-06-30T04:03:21.234Z,57.03
2023-06-30T04:04:21.295Z,57.03
2023-06-30T04:05:21.063Z,57.03
2023-06-30T04:06:21.046Z,56.93
2023-06-30T04:07:21.147Z,56.93
2023-06-30T04:08:21.166Z,56.93
2023-06-30T04:09:21.009Z,56.90
2023-06-30T04:10:21.025Z,56.90
2023-06-30T04:11:20.996Z,56.90
2023-06-30T04:12:20.953Z,56.90
2023-06-30T04:13:20.961Z,56.90
2023-06-30T04:14:20.937Z,56.90
2023-06-30T04:15:20.962Z,56.90
2023-06-30T04:16:20.987Z,56.90
2023-06-30T04:17:20.955Z,56.87
2023-06-30T04:18:20.884Z,56.87
2023-06-30T04:19:20.869Z,56.87
2023-06-30T04:20:20.859Z,56.77
2023-06-30T04:21:21.066Z,56.77
2023-06-30T04:22:20.833Z,56.74
2023-06-30T04:23:20.848Z,56.65
2023-06-30T04:24:20.830Z,56.65
2023-06-30T04:25:20.822Z,56.65
2023-06-30T04:26:20.786Z,56.65
2023-06-30T04:27:20.783Z,56.65
2023-06-30T04:28:20.743Z,56.52
2023-06-30T04:29:20.782Z,56.52
2023-06-30T04:30:20.718Z,56.52
2023-06-30T04:31:20.734Z,56.52
2023-06-30T04:32:20.703Z,56.42
2023-06-30T04:33:20.684Z,56.39
2023-06-30T04:34:20.663Z,56.29
2023-06-30T04:35:20.697Z,56.29
2023-06-30T04:36:20.639Z,56.20
2023-06-30T04:37:20.728Z,56.16
2023-06-30T04:38:22.730Z,56.16
2023-06-30T04:39:20.615Z,56.07
2023-06-30T04:40:20.588Z,56.07
2023-06-30T04:41:20.609Z,56.07
2023-06-30T04:42:20.576Z,55.94
2023-06-30T04:43:20.553Z,56.04
2023-06-30T04:44:20.536Z,55.94
2023-06-30T04:45:20.564Z,55.94
2023-06-30T04:46:20.568Z,55.81
2023-06-30T04:47:20.521Z,55.81
2023-06-30T04:48:20.502Z,55.58
2023-06-30T04:49:20.486Z,55.39
2023-06-30T04:50:20.456Z,55.06
2023-06-30T04:51:20.474Z,54.64
2023-06-30T04:52:20.425Z,54.21
2023-06-30T04:53:20.423Z,53.04
2023-06-30T04:54:20.431Z,51.65
2023-06-30T04:55:20.387Z,50.28
2023-06-30T04:56:20.447Z,49.29
2023-06-30T04:57:20.370Z,48.02
2023-06-30T04:58:20.379Z,46.94
2023-06-30T04:59:20.390Z,46.15
2023-06-30T05:00:20.317Z,45.89
2023-06-30T05:01:20.365Z,45.65
2023-06-30T05:02:20.361Z,45.29
2023-06-30T05:03:20.370Z,45.05
2023-06-30T05:04:20.262Z,44.69
2023-06-30T05:05:20.478Z,44.34
2023-06-30T05:06:20.297Z,44.09
2023-06-30T05:07:20.323Z,43.85
2023-06-30T05:08:20.197Z,44.03
2023-06-30T05:09:20.219Z,44.10
2023-06-30T05:10:20.211Z,43.96
2023-06-30T05:11:20.192Z,43.54
2023-06-30T05:12:20.151Z,43.30
2023-06-30T05:13:20.146Z,43.59
2023-06-30T05:14:20.125Z,43.76
2023-06-30T05:15:20.110Z,43.43
2023-06-30T05:16:21.196Z,43.02
2023-06-30T05:17:20.268Z,42.78
2023-06-30T05:18:20.157Z,42.76
2023-06-30T05:19:20.079Z,42.74
2023-06-30T05:20:20.069Z,42.72
2023-06-30T05:21:20.054Z,42.58
2023-06-30T05:22:20.049Z,42.58
2023-06-30T05:23:20.048Z,42.56
2023-06-30T05:24:19.987Z,42.54
2023-06-30T05:25:19.980Z,42.54
2023-06-30T05:26:20.073Z,42.61
2023-06-30T05:27:19.956Z,42.71
2023-06-30T05:28:19.962Z,42.80
2023-06-30T05:29:19.930Z,42.80
2023-06-30T05:30:19.947Z,43.14
2023-06-30T05:31:19.936Z,44.56
2023-06-30T05:32:19.920Z,46.31
2023-06-30T05:33:19.922Z,47.74
2023-06-30T05:34:19.865Z,48.97
2023-06-30T05:35:19.857Z,49.83
2023-06-30T05:36:19.838Z,50.46
2023-06-30T05:37:19.833Z,50.97
2023-06-30T05:38:19.824Z,51.31
2023-06-30T05:39:19.796Z,51.12
2023-06-30T05:40:19.782Z,51.04
2023-06-30T05:41:19.793Z,51.59
2023-06-30T05:42:19.750Z,52.32
2023-06-30T05:43:19.741Z,52.86
2023-06-30T05:44:19.784Z,53.18
2023-06-30T05:45:19.733Z,53.50
2023-06-30T05:46:19.705Z,53.72
2023-06-30T05:47:19.830Z,53.94
2023-06-30T05:48:19.660Z,54.07
2023-06-30T05:49:19.689Z,54.19
2023-06-30T05:50:19.669Z,54.32
2023-06-30T05:51:19.643Z,54.44
2023-06-30T05:52:19.608Z,54.44
2023-06-30T05:53:19.603Z,54.47
2023-06-30T05:54:19.599Z,54.47
2023-06-30T05:55:19.629Z,54.49
2023-06-30T05:56:19.559Z,54.49
2023-06-30T05:57:19.554Z,54.52
2023-06-30T05:58:19.569Z,54.62
2023-06-30T05:59:19.538Z,54.64
2023-06-30T06:00:19.544Z,54.74
2023-06-30T06:01:19.517Z,54.87
2023-06-30T06:02:19.573Z,54.87
2023-06-30T06:03:19.630Z,54.68
2023-06-30T06:04:19.702Z,54.68
2023-06-30T06:05:19.599Z,54.57
2023-06-30T06:06:19.453Z,54.57
2023-06-30T06:07:19.515Z,54.50
2023-06-30T06:08:19.404Z,54.40
2023-06-30T06:09:19.414Z,54.30
2023-06-30T06:10:19.369Z,54.18
2023-06-30T06:11:19.368Z,53.99
2023-06-30T06:12:19.450Z,53.88
2023-06-30T06:13:19.360Z,53.78
2023-06-30T06:14:19.314Z,53.59
2023-06-30T06:15:19.316Z,53.49
2023-06-30T06:16:19.323Z,53.27
2023-06-30T06:17:19.535Z,52.85
2023-06-30T06:18:19.307Z,52.65
2023-06-30T06:19:19.313Z,52.65
2023-06-30T06:20:19.249Z,52.53
2023-06-30T06:21:19.250Z,52.43
2023-06-30T06:22:19.230Z,52.43
2023-06-30T06:23:19.231Z,52.62
2023-06-30T06:24:19.202Z,52.53
2023-06-30T06:25:19.198Z,52.21
2023-06-30T06:26:19.169Z,52.01
2023-06-30T06:27:19.205Z,52.11
2023-06-30T06:28:19.152Z,52.31
2023-06-30T06:29:19.127Z,52.43
2023-06-30T06:30:19.133Z,52.75
2023-06-30T06:31:19.218Z,52.85
2023-06-30T06:32:19.113Z,52.85
2023-06-30T06:33:19.079Z,52.85
2023-06-30T06:34:19.067Z,52.95
2023-06-30T06:35:19.052Z,52.85
2023-06-30T06:36:19.048Z,53.07
2023-06-30T06:37:19.029Z,53.47
2023-06-30T06:38:19.016Z,53.47
2023-06-30T06:39:18.989Z,53.36
2023-06-30T06:40:18.996Z,53.27
2023-06-30T06:41:18.972Z,53.36
2023-06-30T06:42:19.720Z,53.49
2023-06-30T06:43:18.973Z,53.71
2023-06-30T06:44:18.938Z,53.71
2023-06-30T06:45:18.938Z,53.71
2023-06-30T06:46:18.977Z,53.81
2023-06-30T06:47:18.913Z,53.71
2023-06-30T06:48:18.955Z,53.61
2023-06-30T06:49:18.869Z,53.52
2023-06-30T06:50:18.841Z,53.39
2023-06-30T06:51:18.869Z,53.30
2023-06-30T06:52:18.815Z,53.19
2023-06-30T06:53:18.802Z,53.19
2023-06-30T06:54:18.814Z,53.19
2023-06-30T06:55:18.784Z,53.09
2023-06-30T06:56:18.792Z,53.09
2023-06-30T06:57:18.918Z,53.09
2023-06-30T06:58:18.728Z,52.97
2023-06-30T06:59:18.721Z,53.07
2023-06-30T07:00:18.695Z,53.07
2023-06-30T07:01:18.783Z,53.07
2023-06-30T07:02:18.699Z,53.19
2023-06-30T07:03:18.786Z,53.19
2023-06-30T07:04:18.740Z,53.30
2023-06-30T07:05:18.645Z,53.39
2023-06-30T07:06:18.687Z,53.39
2023-06-30T07:07:18.653Z,53.30
2023-06-30T07:08:18.607Z,53.30
2023-06-30T07:09:18.638Z,53.19
2023-06-30T07:10:18.620Z,53.19
2023-06-30T07:11:18.560Z,53.09
2023-06-30T07:12:18.536Z,52.97
2023-06-30T07:13:18.560Z,52.78
2023-06-30T07:14:18.512Z,52.87
2023-06-30T07:15:18.506Z,52.87
2023-06-30T07:16:18.547Z,53.07
2023-06-30T07:17:18.500Z,53.07
2023-06-30T07:18:18.587Z,53.07
2023-06-30T07:19:18.454Z,53.17
2023-06-30T07:20:18.423Z,53.30
2023-06-30T07:21:18.557Z,53.30
2023-06-30T07:22:18.398Z,53.19
2023-06-30T07:23:18.420Z,53.30
2023-06-30T07:24:18.393Z,53.30
2023-06-30T07:25:18.382Z,53.19
2023-06-30T07:26:18.418Z,53.19
2023-06-30T07:27:18.361Z,53.19
2023-06-30T07:28:18.326Z,53.19
2023-06-30T07:29:18.346Z,53.19
2023-06-30T07:30:18.304Z,53.19
2023-06-30T07:31:18.322Z,53.19
2023-06-30T07:32:20.174Z,53.19
2023-06-30T07:33:18.265Z,53.09
2023-06-30T07:34:18.275Z,53.09
2023-06-30T07:35:18.225Z,52.97
2023-06-30T07:36:18.233Z,52.87
2023-06-30T07:37:18.200Z,52.87
2023-06-30T07:38:18.199Z,52.87
2023-06-30T07:39:18.187Z,52.87
2023-06-30T07:40:19.874Z,52.87
2023-06-30T07:41:18.314Z,52.87
2023-06-30T07:42:18.149Z,52.97
2023-06-30T07:43:18.135Z,52.87
2023-06-30T07:44:18.110Z,52.87
2023-06-30T07:45:18.110Z,52.78
2023-06-30T07:46:18.131Z,52.68
2023-06-30T07:47:18.098Z,52.68
2023-06-30T07:48:18.129Z,52.78
2023-06-30T07:49:18.056Z,52.78
2023-06-30T07:50:18.057Z,52.78
2023-06-30T07:51:18.024Z,52.78
2023-06-30T07:52:18.019Z,52.65
2023-06-30T07:53:18.015Z,52.65
2023-06-30T07:54:18.020Z,52.65
2023-06-30T07:55:17.991Z,52.55
2023-06-30T07:56:17.971Z,52.65
2023-06-30T07:57:17.989Z,52.65
2023-06-30T07:58:17.999Z,52.65
2023-06-30T07:59:18.702Z,52.65
2023-06-30T08:00:18.039Z,52.65
2023-06-30T08:01:17.940Z,52.65
2023-06-30T08:02:17.895Z,52.65
2023-06-30T08:03:18.072Z,52.65
2023-06-30T08:04:18.180Z,52.53
2023-06-30T08:05:18.033Z,52.43
2023-06-30T08:06:17.918Z,52.33
2023-06-30T08:07:17.819Z,52.33
2023-06-30T08:08:17.801Z,52.31
2023-06-30T08:09:17.771Z,52.21
2023-06-30T08:10:17.817Z,52.31
2023-06-30T08:11:17.762Z,52.31
2023-06-30T08:12:17.763Z,52.21
2023-06-30T08:13:17.717Z,52.21
2023-06-30T08:14:17.708Z,52.21
2023-06-30T08:15:17.710Z,52.18
2023-06-30T08:16:17.717Z,52.08
2023-06-30T08:17:24.933Z,52.18
2023-06-30T08:18:32.056Z,52.18
2023-06-30T08:19:22.464Z,52.18
2023-06-30T08:20:17.820Z,52.18
2023-06-30T08:21:17.735Z,52.28
2023-06-30T08:22:17.685Z,52.38
2023-06-30T08:23:17.995Z,52.38
2023-06-30T08:24:17.785Z,52.28
2023-06-30T08:25:17.873Z,52.28
2023-06-30T08:26:17.584Z,52.28
2023-06-30T08:27:17.529Z,52.38
2023-06-30T08:28:17.645Z,52.28
2023-06-30T08:29:17.508Z,52.28
2023-06-30T08:30:17.633Z,52.25
2023-06-30T08:31:17.532Z,52.15
2023-06-30T08:32:17.491Z,52.15
2023-06-30T08:33:30.585Z,52.15
2023-06-30T08:34:17.454Z,52.15
2023-06-30T08:35:17.469Z,52.15
2023-06-30T08:36:17.428Z,52.15
2023-06-30T08:37:17.422Z,52.15
2023-06-30T08:38:17.389Z,52.15
2023-06-30T08:39:17.394Z,52.03
2023-06-30T08:40:17.385Z,52.03
2023-06-30T08:41:17.334Z,52.03
2023-06-30T08:42:17.336Z,52.03
2023-06-30T08:43:18.422Z,52.03
2023-06-30T08:44:17.309Z,52.03
2023-06-30T08:45:17.285Z,52.03
2023-06-30T08:46:17.357Z,52.03
2023-06-30T08:47:17.307Z,52.03
2023-06-30T08:48:17.279Z,51.91
2023-06-30T08:49:17.249Z,51.91
2023-06-30T08:50:17.237Z,51.91
2023-06-30T08:51:17.525Z,51.81
2023-06-30T08:52:17.221Z,51.81
2023-06-30T08:53:17.205Z,51.72
2023-06-30T08:54:17.176Z,51.72
2023-06-30T08:55:17.170Z,51.69
2023-06-30T08:56:17.214Z,51.79
2023-06-30T08:57:17.164Z,51.79
2023-06-30T08:58:25.455Z,51.69
2023-06-30T08:59:17.126Z,51.56
2023-06-30T09:00:17.158Z,51.27
2023-06-30T09:01:17.178Z,51.05
2023-06-30T09:02:18.145Z,50.95
2023-06-30T09:03:17.212Z,50.93
2023-06-30T09:04:17.136Z,51.05
2023-06-30T09:05:17.104Z,51.25
2023-06-30T09:06:17.082Z,51.34
2023-06-30T09:07:17.018Z,51.34
2023-06-30T09:08:17.015Z,51.44
2023-06-30T09:09:16.994Z,51.34
2023-06-30T09:10:16.965Z,51.34
2023-06-30T09:11:16.970Z,51.25
2023-06-30T09:12:16.945Z,51.25
2023-06-30T09:13:16.933Z,51.15
2023-06-30T09:14:16.922Z,51.22
2023-06-30T09:15:16.913Z,51.22
2023-06-30T09:16:18.879Z,51.22
2023-06-30T09:17:16.897Z,51.22
2023-06-30T09:18:17.136Z,51.32
2023-06-30T09:19:16.847Z,51.34
2023-06-30T09:20:16.847Z,51.42
2023-06-30T09:21:16.821Z,51.42
2023-06-30T09:22:52.301Z,51.42
2023-06-30T09:23:16.946Z,51.42
2023-06-30T09:24:16.812Z,51.42
2023-06-30T09:25:17.490Z,51.42
2023-06-30T09:26:16.778Z,51.32
2023-06-30T09:27:16.733Z,51.22
2023-06-30T09:28:16.753Z,51.10
2023-06-30T09:29:16.703Z,51.10
2023-06-30T09:30:16.701Z,51.10
2023-06-30T09:31:16.724Z,51.10
2023-06-30T09:32:16.751Z,51.10
2023-06-30T09:33:16.661Z,51.10
2023-06-30T09:34:16.683Z,51.07
2023-06-30T09:35:16.637Z,50.98
2023-06-30T09:36:16.618Z,50.22
2023-06-30T09:37:16.614Z,47.44
2023-06-30T09:38:16.635Z,43.74
2023-06-30T09:39:16.584Z,40.78
2023-06-30T09:40:16.582Z,39.14
2023-06-30T09:41:16.539Z,40.78
2023-06-30T09:42:16.538Z,42.30
2023-06-30T09:43:16.542Z,42.07
2023-06-30T09:44:16.568Z,40.90
2023-06-30T09:45:16.500Z,41.09
2023-06-30T09:46:16.551Z,40.36
2023-06-30T09:47:16.490Z,39.54
2023-06-30T09:48:16.467Z,40.78
2023-06-30T09:49:16.460Z,42.60
2023-06-30T09:50:16.450Z,44.02
2023-06-30T09:51:16.433Z,45.25
2023-06-30T09:52:16.402Z,46.16
2023-06-30T09:53:16.738Z,46.96
2023-06-30T09:54:16.387Z,47.59
2023-06-30T09:55:16.443Z,47.88
2023-06-30T09:56:16.361Z,47.88
2023-06-30T09:57:16.328Z,46.72
2023-06-30T09:58:16.348Z,43.66
2023-06-30T09:59:16.309Z,44.36
2023-06-30T10:00:33.839Z,43.02
2023-06-30T10:01:16.318Z,41.68
2023-06-30T10:02:16.272Z,39.83
2023-06-30T10:03:16.343Z,39.20
2023-06-30T10:04:16.257Z,37.63
2023-06-30T10:05:16.232Z,34.97
2023-06-30T10:06:16.242Z,32.92
2023-06-30T10:07:16.323Z,31.28
2023-06-30T10:08:16.260Z,30.03
2023-06-30T10:09:16.214Z,29.10
2023-06-30T10:10:16.212Z,28.46
2023-06-30T10:11:16.225Z,28.03
2023-06-30T10:12:16.155Z,27.69
2023-06-30T10:13:16.156Z,27.47
2023-06-30T10:14:16.123Z,27.23
2023-06-30T10:15:16.109Z,27.19
2023-06-30T10:16:16.099Z,27.17
2023-06-30T10:17:16.126Z,27.04
2023-06-30T10:18:16.108Z,27.02
2023-06-30T10:19:16.088Z,26.99
2023-06-30T10:20:16.060Z,26.96
2023-06-30T10:21:16.020Z,27.04
2023-06-30T10:22:16.044Z,27.03
2023-06-30T10:23:16.004Z,27.00
2023-06-30T10:24:15.989Z,27.08
2023-06-30T10:25:16.014Z,27.06
2023-06-30T10:26:15.989Z,27.14
2023-06-30T10:27:15.978Z,27.12
2023-06-30T10:28:15.942Z,27.11
2023-06-30T10:29:15.930Z,27.19
2023-06-30T10:30:15.940Z,27.17
2023-06-30T10:31:15.922Z,27.16
2023-06-30T10:32:15.902Z,27.16
2023-06-30T10:33:15.957Z,27.24
2023-06-30T10:34:15.883Z,27.33
2023-06-30T10:35:15.878Z,27.33
2023-06-30T10:36:15.873Z,27.31
2023-06-30T10:37:15.838Z,27.40
2023-06-30T10:38:15.868Z,27.40
2023-06-30T10:39:15.844Z,27.48
2023-06-30T10:40:15.827Z,27.39
2023-06-30T10:41:15.870Z,27.48
2023-06-30T10:42:15.809Z,27.48
2023-06-30T10:43:15.770Z,27.58
2023-06-30T10:44:15.790Z,27.58
2023-06-30T10:45:15.755Z,27.65
2023-06-30T10:46:15.756Z,27.65
2023-06-30T10:47:15.819Z,27.65
2023-06-30T10:48:15.729Z,27.74
2023-06-30T10:49:15.707Z,27.74
2023-06-30T10:50:15.743Z,27.74
2023-06-30T10:51:15.686Z,27.94
2023-06-30T10:52:15.694Z,28.85
2023-06-30T10:53:15.670Z,31.24
2023-06-30T10:54:15.694Z,34.31
2023-06-30T10:55:15.660Z,37.02
2023-06-30T10:56:15.640Z,39.45
2023-06-30T10:57:15.650Z,41.47
2023-06-30T10:58:15.625Z,43.22
2023-06-30T10:59:15.602Z,44.65
2023-06-30T11:00:15.766Z,45.81
2023-06-30T11:01:15.578Z,46.85
2023-06-30T11:02:15.578Z,47.80
2023-06-30T11:03:15.627Z,48.66
2023-06-30T11:04:15.635Z,49.40
2023-06-30T11:05:15.516Z,50.05
2023-06-30T11:06:15.808Z,50.60
2023-06-30T11:07:15.526Z,51.04
2023-06-30T11:08:15.489Z,51.37
2023-06-30T11:09:15.468Z,51.72
2023-06-30T11:10:15.481Z,51.96
2023-06-30T11:11:15.440Z,52.20
2023-06-30T11:12:15.456Z,52.35
2023-06-30T11:13:15.433Z,52.57
2023-06-30T11:14:15.469Z,52.72
2023-06-30T11:15:15.386Z,52.75
2023-06-30T11:16:15.390Z,52.77
2023-06-30T11:17:15.388Z,52.89
2023-06-30T11:18:15.426Z,52.92
2023-06-30T11:19:15.351Z,52.85
2023-06-30T11:20:15.350Z,52.87
2023-06-30T11:21:15.315Z,52.90
2023-06-30T11:22:15.343Z,52.90
2023-06-30T11:23:15.287Z,52.93
2023-06-30T11:24:15.296Z,53.05
2023-06-30T11:25:15.256Z,53.15
2023-06-30T11:26:15.590Z,53.34
2023-06-30T11:27:15.231Z,53.66
2023-06-30T11:28:15.291Z,53.85
2023-06-30T11:29:15.236Z,54.05
2023-06-30T11:30:15.214Z,54.02
2023-06-30T11:31:15.219Z,53.70
2023-06-30T11:32:15.209Z,52.78
2023-06-30T11:33:15.152Z,50.62
2023-06-30T11:34:15.168Z,47.27
2023-06-30T11:35:15.122Z,43.30
2023-06-30T11:36:15.132Z,40.47
2023-06-30T11:37:15.125Z,40.49
2023-06-30T11:38:15.099Z,42.53
2023-06-30T11:39:15.103Z,44.46
2023-06-30T11:40:15.093Z,45.99
2023-06-30T11:41:15.087Z,47.31
2023-06-30T11:42:15.048Z,48.25
2023-06-30T11:43:15.039Z,48.97
2023-06-30T11:44:15.023Z,49.60
2023-06-30T11:45:15.021Z,50.14
2023-06-30T11:46:15.050Z,50.55
2023-06-30T11:47:15.008Z,50.89
2023-06-30T11:48:14.970Z,51.11
2023-06-30T11:49:14.953Z,51.33
2023-06-30T11:50:14.939Z,51.55
2023-06-30T11:51:14.955Z,51.67
2023-06-30T11:52:14.914Z,51.77
2023-06-30T11:53:14.900Z,51.89
2023-06-30T11:54:14.883Z,51.92
2023-06-30T11:55:14.895Z,52.04
2023-06-30T11:56:14.899Z,52.04
2023-06-30T11:57:14.856Z,52.04
2023-06-30T11:58:14.830Z,52.06
2023-06-30T11:59:14.819Z,52.06
2023-06-30T12:00:14.794Z,52.09
2023-06-30T12:01:14.835Z,52.09
2023-06-30T12:02:14.893Z,52.12
2023-06-30T12:03:14.826Z,52.12
2023-06-30T12:04:14.822Z,52.12
2023-06-30T12:05:14.781Z,52.02
2023-06-30T12:06:14.736Z,52.04
2023-06-30T12:07:14.748Z,52.04
2023-06-30T12:08:14.768Z,51.95
2023-06-30T12:09:14.704Z,51.85
2023-06-30T12:10:14.692Z,51.87
2023-06-30T12:11:14.668Z,51.87
2023-06-30T12:12:14.645Z,51.87
2023-06-30T12:13:14.665Z,51.87
2023-06-30T12:14:14.617Z,51.78
2023-06-30T12:15:14.630Z,51.78
2023-06-30T12:16:14.693Z,51.80
2023-06-30T12:17:14.652Z,51.68
2023-06-30T12:18:14.569Z,51.61
2023-06-30T12:19:14.924Z,51.61
2023-06-30T12:20:14.556Z,51.61
2023-06-30T12:21:14.571Z,51.51
2023-06-30T12:22:14.505Z,51.51
2023-06-30T12:23:14.524Z,51.51
2023-06-30T12:24:14.601Z,51.51
2023-06-30T12:25:14.492Z,51.51
2023-06-30T12:26:14.463Z,51.51
2023-06-30T12:27:14.453Z,51.51
2023-06-30T12:28:14.438Z,51.51
2023-06-30T12:29:14.435Z,51.41
2023-06-30T12:30:14.438Z,51.53
2023-06-30T12:31:14.421Z,51.53
2023-06-30T12:32:14.385Z,51.53
2023-06-30T12:33:14.388Z,51.53
2023-06-30T12:34:14.366Z,51.53
2023-06-30T12:35:14.388Z,51.53
2023-06-30T12:36:14.911Z,51.56
2023-06-30T12:37:14.337Z,51.66
2023-06-30T12:38:14.318Z,51.56
2023-06-30T12:39:14.305Z,51.56
2023-06-30T12:40:14.313Z,51.59
2023-06-30T12:41:14.343Z,51.68
2023-06-30T12:42:14.288Z,51.68
2023-06-30T12:43:14.302Z,51.68
2023-06-30T12:44:14.254Z,51.71
2023-06-30T12:45:14.230Z,51.71
2023-06-30T12:46:14.265Z,51.71
2023-06-30T12:47:14.306Z,51.61
2023-06-30T12:48:14.236Z,51.61
2023-06-30T12:49:14.193Z,51.64
2023-06-30T12:50:14.170Z,51.73
2023-06-30T12:51:14.187Z,51.73
2023-06-30T12:52:14.157Z,51.95